Time;durP1;ratioP1;P1;durP2;ratioP2;P2;SDS_P1;SDS_P2;PMS_P1;PMS_P2;Temp;Humidity;BMP_temperature;BMP_pressure;BME280_temperature;BME280_humidity;BME280_pressure;Samples;Min_cycle;Max_cycle;Signal;HPM_P1;HPM_P2
2021/09/20 00:00:10;;;;;;;6.65;3.78;;;;;;;;;;5070753;28;20077;-71
2021/09/20 00:02:36;;;;;;;7.35;3.90;;;;;;;;;;5072496;28;20063;-72
2021/09/20 00:05:02;;;;;;;7.25;4.38;;;;;;;;;;5065893;28;20028;-71
2021/09/20 00:07:28;;;;;;;6.82;4.25;;;;;;;;;;5088068;28;20080;-71
2021/09/20 00:09:53;;;;;;;8.10;4.43;;;;;;;;;;5054345;28;20044;-71
2021/09/20 00:12:20;;;;;;;8.98;4.28;;;;;;;;;;5072836;28;20443;-72
2021/09/20 00:14:45;;;;;;;8.52;4.30;;;;;;;;;;5083875;28;20032;-71
2021/09/20 00:17:11;;;;;;;10.95;4.40;;;;;;;;;;5071329;28;20365;-72
2021/09/20 00:19:36;;;;;;;6.90;4.10;;;;;;;;;;5067610;28;20023;-71
2021/09/20 00:22:02;;;;;;;8.15;3.97;;;;;;;;;;5081742;28;20106;-73
2021/09/20 00:24:28;;;;;;;7.53;4.05;;;;;;;;;;5071466;28;20392;-73
2021/09/20 00:26:53;;;;;;;7.78;3.88;;;;;;;;;;5060205;28;20029;-72
2021/09/20 00:29:19;;;;;;;6.03;3.78;;;;;;;;;;5076723;28;20464;-72
2021/09/20 00:31:44;;;;;;;6.68;4.05;;;;;;;;;;5059121;28;20059;-72
2021/09/20 00:34:10;;;;;;;7.80;4.47;;;;;;;;;;5070040;28;20070;-72
2021/09/20 00:36:35;;;;;;;8.27;3.95;;;;;;;;;;5056174;28;20027;-71
2021/09/20 00:39:01;;;;;;;7.13;3.78;;;;;;;;;;5080060;28;20033;-72
2021/09/20 00:41:27;;;;;;;9.00;4.10;;;;;;;;;;5061861;28;20373;-72
2021/09/20 00:43:52;;;;;;;8.65;3.55;;;;;;;;;;5076658;28;20023;-71
2021/09/20 00:46:18;;;;;;;6.53;3.53;;;;;;;;;;5080990;28;20032;-71
2021/09/20 00:48:43;;;;;;;7.30;3.75;;;;;;;;;;5068652;28;20035;-72
2021/09/20 00:51:09;;;;;;;7.60;3.50;;;;;;;;;;5090789;28;20316;-72
2021/09/20 00:53:34;;;;;;;6.53;3.83;;;;;;;;;;5088813;28;20383;-72
2021/09/20 00:56:00;;;;;;;7.15;3.90;;;;;;;;;;5075243;28;20082;-72
2021/09/20 00:58:26;;;;;;;7.60;3.50;;;;;;;;;;5061850;28;20036;-72
2021/09/20 01:00:52;;;;;;;5.30;3.42;;;;;;;;;;5061647;28;20476;-71
2021/09/20 01:03:18;;;;;;;6.18;3.83;;;;;;;;;;5070323;28;20086;-72
2021/09/20 01:05:43;;;;;;;7.47;3.83;;;;;;;;;;5075987;28;20028;-71
2021/09/20 01:08:09;;;;;;;6.60;3.80;;;;;;;;;;5070999;28;20039;-72
2021/09/20 01:10:34;;;;;;;6.65;3.80;;;;;;;;;;5065461;28;20124;-72
2021/09/20 01:13:00;;;;;;;6.93;3.65;;;;;;;;;;5074904;28;20032;-71
2021/09/20 01:15:26;;;;;;;7.90;3.55;;;;;;;;;;5083228;28;20028;-72
2021/09/20 01:17:52;;;;;;;7.45;4.05;;;;;;;;;;5082741;28;20020;-72
2021/09/20 01:20:18;;;;;;;7.20;4.00;;;;;;;;;;5073880;28;20028;-72
2021/09/20 01:22:52;;;;;;;7.55;4.22;;;;;;;;;;5077064;28;20062;-72
2021/09/20 01:25:18;;;;;;;5.72;3.97;;;;;;;;;;5063827;28;20090;-71
2021/09/20 01:27:44;;;;;;;6.53;3.88;;;;;;;;;;5061096;28;20016;-72
2021/09/20 01:30:10;;;;;;;5.82;3.60;;;;;;;;;;5073924;28;20028;-73
2021/09/20 01:32:36;;;;;;;7.13;4.00;;;;;;;;;;5079134;28;20032;-73
2021/09/20 01:35:02;;;;;;;7.35;4.10;;;;;;;;;;5063600;28;20464;-73
2021/09/20 01:37:27;;;;;;;9.73;3.55;;;;;;;;;;5072313;28;20071;-72
2021/09/20 01:39:53;;;;;;;5.85;3.67;;;;;;;;;;5073125;28;20103;-72
2021/09/20 01:42:18;;;;;;;6.45;3.83;;;;;;;;;;5075950;28;20020;-73
2021/09/20 01:44:44;;;;;;;7.15;3.50;;;;;;;;;;5082876;28;20024;-72
2021/09/20 01:47:10;;;;;;;5.97;3.42;;;;;;;;;;5070655;28;20079;-72
2021/09/20 01:49:36;;;;;;;6.00;3.60;;;;;;;;;;5074376;28;20506;-71
2021/09/20 01:52:01;;;;;;;6.75;3.40;;;;;;;;;;5076455;28;20020;-72
2021/09/20 01:54:27;;;;;;;5.30;3.53;;;;;;;;;;5073377;28;20024;-72
2021/09/20 01:56:53;;;;;;;6.88;3.97;;;;;;;;;;5070875;28;20024;-71
2021/09/20 01:59:18;;;;;;;6.82;3.75;;;;;;;;;;5073102;28;20059;-72
2021/09/20 02:01:44;;;;;;;6.07;3.65;;;;;;;;;;5075671;28;20033;-72
2021/09/20 02:04:10;;;;;;;5.68;3.60;;;;;;;;;;5057186;28;20111;-72
2021/09/20 02:06:36;;;;;;;5.35;3.70;;;;;;;;;;5070760;28;20020;-72
2021/09/20 02:09:03;;;;;;;6.60;4.00;;;;;;;;;;5074814;28;20032;-72
2021/09/20 02:11:28;;;;;;;5.88;3.58;;;;;;;;;;5069265;28;20048;-72
2021/09/20 02:13:54;;;;;;;9.13;3.75;;;;;;;;;;5069637;28;20059;-72
2021/09/20 02:16:20;;;;;;;5.68;3.33;;;;;;;;;;5060671;28;20105;-72
2021/09/20 02:18:45;;;;;;;6.00;3.53;;;;;;;;;;5061530;28;20472;-72
2021/09/20 02:21:13;;;;;;;7.05;3.65;;;;;;;;;;5075473;28;20028;-72
2021/09/20 02:23:39;;;;;;;5.32;3.30;;;;;;;;;;5076161;28;20037;-73
2021/09/20 02:26:05;;;;;;;5.55;3.63;;;;;;;;;;5088406;28;20046;-72
2021/09/20 02:28:31;;;;;;;5.53;3.65;;;;;;;;;;5075896;28;20484;-72
2021/09/20 02:30:57;;;;;;;8.23;3.90;;;;;;;;;;5072898;28;20094;-72
2021/09/20 02:33:24;;;;;;;10.27;3.70;;;;;;;;;;5077575;28;20051;-72
2021/09/20 02:35:49;;;;;;;5.10;3.28;;;;;;;;;;5090167;28;20023;-73
2021/09/20 02:38:15;;;;;;;11.02;3.97;;;;;;;;;;5078150;28;20040;-72
2021/09/20 02:40:41;;;;;;;5.43;3.50;;;;;;;;;;5074376;28;20047;-72
2021/09/20 02:43:07;;;;;;;5.75;3.47;;;;;;;;;;5068967;28;20064;-72
2021/09/20 02:45:32;;;;;;;5.25;3.22;;;;;;;;;;5077723;28;20388;-72
2021/09/20 02:47:58;;;;;;;6.53;3.40;;;;;;;;;;5062887;28;20107;-72
2021/09/20 02:50:23;;;;;;;5.65;3.67;;;;;;;;;;5085162;28;20032;-72
2021/09/20 02:52:49;;;;;;;5.82;3.65;;;;;;;;;;5075000;28;20032;-72
2021/09/20 02:55:15;;;;;;;5.60;3.60;;;;;;;;;;5052382;28;20075;-72
2021/09/20 02:57:41;;;;;;;4.85;3.40;;;;;;;;;;5077877;28;20114;-72
2021/09/20 03:00:09;;;;;;;6.80;3.38;;;;;;;;;;5066214;28;20060;-71
2021/09/20 03:02:36;;;;;;;7.07;3.38;;;;;;;;;;5078495;28;20170;-72
2021/09/20 03:05:02;;;;;;;6.22;3.33;;;;;;;;;;5071917;28;20020;-72
2021/09/20 03:07:27;;;;;;;6.50;3.40;;;;;;;;;;5078765;28;20357;-72
2021/09/20 03:09:54;;;;;;;8.27;3.13;;;;;;;;;;5086086;28;20020;-72
2021/09/20 03:12:19;;;;;;;6.88;3.35;;;;;;;;;;5054364;28;20516;-71
2021/09/20 03:14:45;;;;;;;5.43;3.30;;;;;;;;;;5059040;28;20109;-72
2021/09/20 03:17:10;;;;;;;5.65;3.40;;;;;;;;;;5073178;28;20037;-72
2021/09/20 03:19:36;;;;;;;5.55;3.35;;;;;;;;;;5071133;28;20380;-72
2021/09/20 03:22:01;;;;;;;6.25;3.58;;;;;;;;;;5081130;28;20023;-71
2021/09/20 03:24:28;;;;;;;6.22;3.33;;;;;;;;;;5072722;28;20472;-71
2021/09/20 03:26:54;;;;;;;7.13;3.13;;;;;;;;;;5053858;28;20052;-71
2021/09/20 03:29:20;;;;;;;5.15;3.05;;;;;;;;;;5074143;28;20074;-72
2021/09/20 03:31:46;;;;;;;5.63;3.50;;;;;;;;;;5061780;28;20025;-71
2021/09/20 03:34:12;;;;;;;4.95;3.15;;;;;;;;;;5071369;28;20028;-72
2021/09/20 03:36:37;;;;;;;7.28;3.45;;;;;;;;;;5070379;28;20027;-72
2021/09/20 03:39:03;;;;;;;4.68;3.03;;;;;;;;;;5072578;28;20442;-71
2021/09/20 03:41:29;;;;;;;5.43;3.35;;;;;;;;;;5073209;28;20024;-71
2021/09/20 03:43:55;;;;;;;8.02;3.40;;;;;;;;;;5071913;28;20494;-72
2021/09/20 03:46:20;;;;;;;5.72;3.50;;;;;;;;;;5082316;28;20075;-72
2021/09/20 03:48:46;;;;;;;5.22;3.38;;;;;;;;;;5072661;28;20032;-72
2021/09/20 03:51:13;;;;;;;5.45;3.38;;;;;;;;;;5062928;28;20025;-72
2021/09/20 03:53:38;;;;;;;4.95;3.15;;;;;;;;;;5053209;28;20392;-72
2021/09/20 03:56:04;;;;;;;6.35;3.25;;;;;;;;;;5070582;28;20020;-72
2021/09/20 03:58:30;;;;;;;6.18;3.42;;;;;;;;;;5071891;28;20480;-71
2021/09/20 04:00:56;;;;;;;5.13;3.33;;;;;;;;;;5056306;28;20024;-71
2021/09/20 04:03:22;;;;;;;5.13;3.47;;;;;;;;;;5074632;28;20036;-72
2021/09/20 04:05:47;;;;;;;6.07;3.15;;;;;;;;;;5070157;28;20043;-72
2021/09/20 04:08:15;;;;;;;5.32;3.40;;;;;;;;;;5071281;28;20028;-72
2021/09/20 04:10:45;;;;;;;6.43;3.60;;;;;;;;;;5081357;28;20036;-72
2021/09/20 04:13:10;;;;;;;5.00;3.28;;;;;;;;;;5082857;28;20028;-72
2021/09/20 04:15:38;;;;;;;5.75;3.60;;;;;;;;;;5068379;28;20534;-72
2021/09/20 04:18:05;;;;;;;5.30;3.13;;;;;;;;;;5061945;28;20060;-72
2021/09/20 04:20:32;;;;;;;6.03;3.60;;;;;;;;;;5073807;28;20023;-72
2021/09/20 04:22:57;;;;;;;5.45;3.35;;;;;;;;;;5072764;28;20099;-72
2021/09/20 04:25:23;;;;;;;8.23;3.40;;;;;;;;;;5052632;28;20029;-71
2021/09/20 04:27:48;;;;;;;4.90;3.28;;;;;;;;;;5070621;28;20107;-74
2021/09/20 04:30:14;;;;;;;4.70;3.28;;;;;;;;;;5070790;28;20373;-74
2021/09/20 04:32:41;;;;;;;5.68;3.35;;;;;;;;;;5081704;28;20115;-75
2021/09/20 04:35:07;;;;;;;6.13;3.55;;;;;;;;;;5092392;28;20024;-74
2021/09/20 04:37:33;;;;;;;6.00;3.35;;;;;;;;;;5086816;28;20031;-75
2021/09/20 04:39:58;;;;;;;6.07;3.05;;;;;;;;;;5071361;28;20476;-75
2021/09/20 04:42:24;;;;;;;4.80;3.50;;;;;;;;;;5071051;28;20028;-74
2021/09/20 04:44:49;;;;;;;7.35;3.83;;;;;;;;;;5075246;28;20025;-74
2021/09/20 04:47:15;;;;;;;7.63;4.18;;;;;;;;;;5074234;28;20032;-73
2021/09/20 04:49:41;;;;;;;5.07;3.42;;;;;;;;;;5068770;28;20432;-74
2021/09/20 04:52:07;;;;;;;5.70;3.58;;;;;;;;;;5068425;28;20139;-73
2021/09/20 04:54:33;;;;;;;5.57;3.58;;;;;;;;;;5063121;28;20119;-73
2021/09/20 04:56:58;;;;;;;6.13;3.47;;;;;;;;;;5069961;28;20025;-75
2021/09/20 04:59:24;;;;;;;4.43;2.95;;;;;;;;;;5071925;28;20032;-75
2021/09/20 05:01:49;;;;;;;5.55;3.83;;;;;;;;;;5065280;28;20033;-75
2021/09/20 05:04:15;;;;;;;4.65;3.50;;;;;;;;;;5071344;28;20387;-74
2021/09/20 05:06:41;;;;;;;5.68;3.42;;;;;;;;;;5068999;28;20024;-74
2021/09/20 05:09:07;;;;;;;5.45;3.40;;;;;;;;;;5061057;28;20029;-74
2021/09/20 05:11:33;;;;;;;7.10;3.55;;;;;;;;;;5070573;28;20788;-73
2021/09/20 05:13:59;;;;;;;7.95;3.60;;;;;;;;;;5072747;28;20024;-72
2021/09/20 05:16:24;;;;;;;6.60;3.50;;;;;;;;;;5071055;28;20523;-74
2021/09/20 05:18:50;;;;;;;5.53;3.88;;;;;;;;;;5054609;28;20028;-72
2021/09/20 05:21:16;;;;;;;4.63;3.17;;;;;;;;;;5089219;28;20028;-74
2021/09/20 05:23:43;;;;;;;8.77;3.70;;;;;;;;;;5077422;28;20408;-72
2021/09/20 05:26:09;;;;;;;6.28;3.63;;;;;;;;;;5068860;28;20032;-73
2021/09/20 05:28:34;;;;;;;5.82;3.88;;;;;;;;;;5068823;28;20036;-74
2021/09/20 05:31:02;;;;;;;5.35;3.67;;;;;;;;;;5058958;28;20448;-74
2021/09/20 05:33:31;;;;;;;7.82;3.60;;;;;;;;;;5078726;28;20551;-71
2021/09/20 05:35:56;;;;;;;5.57;3.70;;;;;;;;;;5081712;28;20048;-72
2021/09/20 05:38:21;;;;;;;5.68;3.72;;;;;;;;;;5082195;28;20059;-71
2021/09/20 05:40:47;;;;;;;7.03;4.10;;;;;;;;;;5083880;28;20070;-73
2021/09/20 05:43:12;;;;;;;5.53;3.90;;;;;;;;;;5087605;28;20376;-73
2021/09/20 05:45:38;;;;;;;6.28;3.72;;;;;;;;;;5075730;28;20622;-71
2021/09/20 05:48:04;;;;;;;5.40;3.53;;;;;;;;;;5076923;28;20035;-72
2021/09/20 05:50:30;;;;;;;5.72;3.85;;;;;;;;;;5071007;28;20083;-71
2021/09/20 05:52:56;;;;;;;7.78;3.72;;;;;;;;;;5071039;28;20020;-73
2021/09/20 05:55:22;;;;;;;5.97;4.00;;;;;;;;;;5054941;28;20031;-72
2021/09/20 05:57:48;;;;;;;6.60;3.95;;;;;;;;;;5087846;28;20086;-73
2021/09/20 06:00:14;;;;;;;6.35;4.60;;;;;;;;;;5078596;28;20464;-73
2021/09/20 06:02:40;;;;;;;13.48;4.57;;;;;;;;;;5075721;28;20368;-72
2021/09/20 06:05:07;;;;;;;5.93;3.67;;;;;;;;;;5083047;28;20029;-73
2021/09/20 06:07:33;;;;;;;6.00;3.58;;;;;;;;;;5082352;28;20043;-73
2021/09/20 06:09:59;;;;;;;6.90;4.03;;;;;;;;;;5079068;28;20024;-71
2021/09/20 06:12:24;;;;;;;5.28;4.05;;;;;;;;;;5074445;28;20036;-72
2021/09/20 06:14:50;;;;;;;8.40;4.22;;;;;;;;;;5075532;28;20017;-73
2021/09/20 06:17:15;;;;;;;5.60;3.95;;;;;;;;;;5076170;28;20056;-73
2021/09/20 06:19:40;;;;;;;6.88;4.32;;;;;;;;;;5075735;28;20119;-73
2021/09/20 06:22:07;;;;;;;7.38;4.68;;;;;;;;;;5074442;28;20029;-73
2021/09/20 06:24:33;;;;;;;5.70;4.45;;;;;;;;;;5090023;28;20032;-72
2021/09/20 06:26:58;;;;;;;6.55;4.60;;;;;;;;;;5079226;28;20028;-72
2021/09/20 06:29:24;;;;;;;6.43;4.18;;;;;;;;;;5094627;28;20189;-73
2021/09/20 06:31:50;;;;;;;8.00;4.43;;;;;;;;;;5075806;28;20488;-73
2021/09/20 06:34:15;;;;;;;6.43;3.83;;;;;;;;;;5073715;28;20504;-72
2021/09/20 06:36:41;;;;;;;6.25;4.05;;;;;;;;;;5065300;28;20111;-73
2021/09/20 06:39:08;;;;;;;9.27;4.80;;;;;;;;;;5079623;28;20499;-73
2021/09/20 06:41:34;;;;;;;9.00;4.53;;;;;;;;;;5081342;28;20777;-73
2021/09/20 06:44:00;;;;;;;7.35;4.20;;;;;;;;;;5073805;28;20032;-72
2021/09/20 06:46:26;;;;;;;6.38;4.18;;;;;;;;;;5078986;28;20377;-74
2021/09/20 06:48:52;;;;;;;5.85;3.92;;;;;;;;;;5093763;28;20028;-72
2021/09/20 06:51:18;;;;;;;4.95;3.65;;;;;;;;;;5077215;28;20029;-73
2021/09/20 06:53:43;;;;;;;6.28;4.10;;;;;;;;;;5073255;28;20024;-73
2021/09/20 06:56:09;;;;;;;6.40;4.22;;;;;;;;;;5075754;28;20027;-73
2021/09/20 06:58:35;;;;;;;5.60;4.20;;;;;;;;;;5081225;28;20028;-73
2021/09/20 07:01:00;;;;;;;6.35;4.57;;;;;;;;;;5074263;28;20020;-73
2021/09/20 07:03:26;;;;;;;6.93;4.30;;;;;;;;;;5078162;28;20371;-73
2021/09/20 07:05:51;;;;;;;6.45;4.28;;;;;;;;;;5073721;28;20023;-72
2021/09/20 07:08:17;;;;;;;5.68;3.80;;;;;;;;;;5073276;28;20036;-72
2021/09/20 07:10:43;;;;;;;6.53;4.53;;;;;;;;;;5073889;28;20052;-71
2021/09/20 07:13:11;;;;;;;7.30;4.50;;;;;;;;;;5075466;28;20028;-73
2021/09/20 07:15:37;;;;;;;6.22;4.22;;;;;;;;;;5078561;28;20107;-74
2021/09/20 07:18:04;;;;;;;6.47;4.40;;;;;;;;;;5075977;28;20071;-74
2021/09/20 07:20:31;;;;;;;6.85;4.65;;;;;;;;;;5071937;28;20055;-73
2021/09/20 07:22:56;;;;;;;5.45;4.32;;;;;;;;;;5075495;28;20028;-74
2021/09/20 07:25:22;;;;;;;6.32;4.35;;;;;;;;;;5079176;28;20024;-74
2021/09/20 07:27:48;;;;;;;5.70;4.32;;;;;;;;;;5073987;28;20108;-73
2021/09/20 07:30:17;;;;;;;6.50;4.53;;;;;;;;;;5076326;28;20353;-73
2021/09/20 07:32:47;;;;;;;7.03;4.35;;;;;;;;;;5061960;28;20063;-72
2021/09/20 07:35:16;;;;;;;5.28;4.07;;;;;;;;;;5087498;28;20028;-72
2021/09/20 07:37:43;;;;;;;6.05;3.80;;;;;;;;;;5080008;28;20440;-73
2021/09/20 07:40:11;;;;;;;5.10;3.72;;;;;;;;;;5080834;28;20107;-74
2021/09/20 07:42:36;;;;;;;5.25;3.30;;;;;;;;;;5081099;28;20032;-75
2021/09/20 07:45:03;;;;;;;6.28;4.13;;;;;;;;;;5081676;28;20066;-73
2021/09/20 07:47:28;;;;;;;6.35;4.35;;;;;;;;;;5081293;28;20051;-72
2021/09/20 07:49:54;;;;;;;5.97;4.07;;;;;;;;;;5074261;28;20082;-72
2021/09/20 07:52:19;;;;;;;10.85;4.53;;;;;;;;;;5075902;28;20676;-73
2021/09/20 07:54:45;;;;;;;6.63;4.22;;;;;;;;;;5072972;28;20032;-73
2021/09/20 07:57:11;;;;;;;6.28;4.28;;;;;;;;;;5076686;28;20020;-73
2021/09/20 07:59:36;;;;;;;8.07;4.50;;;;;;;;;;5058326;28;20028;-73
2021/09/20 08:02:02;;;;;;;5.82;4.50;;;;;;;;;;5076430;28;20062;-73
2021/09/20 08:04:28;;;;;;;4.53;3.60;;;;;;;;;;5083625;28;20411;-73
2021/09/20 08:06:54;;;;;;;5.70;3.75;;;;;;;;;;5078931;28;20028;-73
2021/09/20 08:09:19;;;;;;;4.47;3.60;;;;;;;;;;5078446;28;20032;-75
2021/09/20 08:11:47;;;;;;;5.82;3.70;;;;;;;;;;5074060;28;20020;-74
2021/09/20 08:14:15;;;;;;;5.40;3.50;;;;;;;;;;5092336;28;20077;-75
2021/09/20 08:16:45;;;;;;;4.88;4.00;;;;;;;;;;5082959;28;20502;-73
2021/09/20 08:19:11;;;;;;;5.05;3.92;;;;;;;;;;5076969;28;20024;-73
2021/09/20 08:21:38;;;;;;;6.15;4.30;;;;;;;;;;5071625;28;20025;-73
2021/09/20 08:24:04;;;;;;;6.28;4.10;;;;;;;;;;5078571;28;20027;-73
2021/09/20 08:26:34;;;;;;;7.03;4.05;;;;;;;;;;5063306;28;20024;-68
2021/09/20 08:28:59;;;;;;;5.80;4.72;;;;;;;;;;5064276;28;20047;-66
2021/09/20 08:31:25;;;;;;;5.40;4.45;;;;;;;;;;5054700;28;20063;-65
2021/09/20 08:33:51;;;;;;;6.80;4.85;;;;;;;;;;5084104;28;20077;-66
2021/09/20 08:36:18;;;;;;;7.55;4.90;;;;;;;;;;5072875;28;20028;-66
2021/09/20 08:38:43;;;;;;;7.90;5.40;;;;;;;;;;5077418;28;20114;-67
2021/09/20 08:41:09;;;;;;;6.55;4.88;;;;;;;;;;5072498;28;20446;-68
2021/09/20 08:43:36;;;;;;;6.45;4.60;;;;;;;;;;5065780;28;20032;-67
2021/09/20 08:46:04;;;;;;;7.10;4.60;;;;;;;;;;5067940;28;20059;-68
2021/09/20 08:48:40;;;;;;;7.00;4.97;;;;;;;;;;5071355;28;20024;-69
2021/09/20 08:51:06;;;;;;;6.50;5.30;;;;;;;;;;5071461;28;20036;-70
2021/09/20 08:53:33;;;;;;;7.32;5.22;;;;;;;;;;5078471;28;20464;-68
2021/09/20 08:55:59;;;;;;;7.65;5.10;;;;;;;;;;5074528;28;20090;-68
2021/09/20 08:58:25;;;;;;;6.47;5.10;;;;;;;;;;5071093;28;20036;-68
2021/09/20 09:00:51;;;;;;;7.10;4.68;;;;;;;;;;5071260;28;20024;-69
2021/09/20 09:03:22;;;;;;;9.85;4.97;;;;;;;;;;5075238;28;20514;-70
2021/09/20 09:05:49;;;;;;;6.22;4.78;;;;;;;;;;5075561;28;20032;-69
2021/09/20 09:08:18;;;;;;;6.72;5.05;;;;;;;;;;5079106;28;20055;-69
2021/09/20 09:10:58;;;;;;;6.80;4.28;;;;;;;;;;5070279;28;20087;-68
2021/09/20 09:13:34;;;;;;;5.63;4.32;;;;;;;;;;5047768;28;20029;-69
2021/09/20 09:16:27;;;;;;;7.25;4.05;;;;;;;;;;5073748;28;20029;-69
2021/09/20 09:19:12;;;;;;;6.43;4.60;;;;;;;;;;5069792;28;20035;-68
2021/09/20 09:21:43;;;;;;;6.07;4.20;;;;;;;;;;5069529;28;20020;-68
2021/09/20 09:24:10;;;;;;;8.57;4.72;;;;;;;;;;5086639;28;20032;-68
2021/09/20 09:26:37;;;;;;;8.55;4.45;;;;;;;;;;5079163;28;20024;-69
2021/09/20 09:29:08;;;;;;;6.03;4.00;;;;;;;;;;5076300;28;20024;-69
2021/09/20 09:31:36;;;;;;;6.28;3.80;;;;;;;;;;5072036;28;20024;-71
2021/09/20 09:34:14;;;;;;;6.60;4.78;;;;;;;;;;5079377;28;20476;-67
2021/09/20 09:36:41;;;;;;;8.93;4.60;;;;;;;;;;5053103;28;20035;-68
2021/09/20 09:39:07;;;;;;;6.40;4.25;;;;;;;;;;5074139;28;20744;-68
2021/09/20 09:41:38;;;;;;;6.28;4.22;;;;;;;;;;5074063;28;20032;-70
2021/09/20 09:44:06;;;;;;;7.00;4.05;;;;;;;;;;5074512;28;20452;-67
2021/09/20 09:46:41;;;;;;;6.93;4.15;;;;;;;;;;5055947;28;20028;-70
2021/09/20 09:49:17;;;;;;;6.63;3.90;;;;;;;;;;5072817;28;20376;-68
2021/09/20 09:52:09;;;;;;;5.50;4.03;;;;;;;;;;5078346;28;20430;-69
2021/09/20 09:54:41;;;;;;;6.65;4.20;;;;;;;;;;5073904;28;20029;-71
2021/09/20 09:57:22;;;;;;;6.10;3.58;;;;;;;;;;5076733;28;20344;-68
2021/09/20 09:59:59;;;;;;;5.13;3.55;;;;;;;;;;5084752;28;20036;-68
2021/09/20 10:02:28;;;;;;;5.00;3.28;;;;;;;;;;5056842;28;20143;-68
2021/09/20 10:05:07;;;;;;;4.43;3.15;;;;;;;;;;5075152;28;20016;-70
2021/09/20 10:07:39;;;;;;;5.18;3.13;;;;;;;;;;5078719;28;20447;-69
2021/09/20 10:10:14;;;;;;;6.10;3.13;;;;;;;;;;5073775;28;20078;-70
2021/09/20 10:12:41;;;;;;;4.97;3.10;;;;;;;;;;5105494;27;20351;-67
2021/09/20 10:15:09;;;;;;;4.53;3.17;;;;;;;;;;5073709;28;20099;-66
2021/09/20 10:17:35;;;;;;;3.58;2.53;;;;;;;;;;5101599;28;20019;-68
2021/09/20 10:20:02;;;;;;;3.40;2.70;;;;;;;;;;5094650;28;20353;-68
2021/09/20 10:22:28;;;;;;;8.43;3.90;;;;;;;;;;5093451;28;20089;-67
2021/09/20 10:24:58;;;;;;;4.68;2.63;;;;;;;;;;5076476;28;20028;-67
2021/09/20 10:27:25;;;;;;;4.50;2.90;;;;;;;;;;5094759;28;20027;-68
2021/09/20 10:29:54;;;;;;;5.05;2.80;;;;;;;;;;5094505;28;20035;-69
2021/09/20 10:32:20;;;;;;;4.40;3.20;;;;;;;;;;5095242;28;20076;-68
2021/09/20 10:34:49;;;;;;;4.57;2.80;;;;;;;;;;5093902;28;20032;-69
2021/09/20 10:37:23;;;;;;;4.88;2.80;;;;;;;;;;5105688;28;20020;-68
2021/09/20 10:39:57;;;;;;;4.03;2.67;;;;;;;;;;5113210;28;20035;-68
2021/09/20 10:42:43;;;;;;;3.28;2.53;;;;;;;;;;5112031;28;20027;-68
2021/09/20 10:45:45;;;;;;;5.68;2.90;;;;;;;;;;5110392;28;20020;-68
2021/09/20 10:48:23;;;;;;;3.35;2.13;;;;;;;;;;5101785;28;20024;-69
2021/09/20 10:50:53;;;;;;;3.38;2.20;;;;;;;;;;5093998;28;20040;-68
2021/09/20 10:53:34;;;;;;;4.97;2.20;;;;;;;;;;5094135;28;20379;-68
2021/09/20 10:56:03;;;;;;;4.15;2.25;;;;;;;;;;5095491;28;20027;-69
2021/09/20 10:58:29;;;;;;;4.00;2.38;;;;;;;;;;5096254;28;20149;-68
2021/09/20 11:01:10;;;;;;;4.85;1.88;;;;;;;;;;5104029;28;20103;-68
2021/09/20 11:03:43;;;;;;;4.13;2.38;;;;;;;;;;5111869;28;20071;-68
2021/09/20 11:06:19;;;;;;;3.67;2.10;;;;;;;;;;5099288;28;20031;-68
2021/09/20 11:08:45;;;;;;;3.63;1.73;;;;;;;;;;5101649;28;20163;-68
2021/09/20 11:14:10;;;;;;;2.80;1.88;;;;;;;;;;5094527;28;20064;-68
2021/09/20 11:16:46;;;;;;;5.53;2.17;;;;;;;;;;5111760;28;20379;-68
2021/09/20 11:19:24;;;;;;;6.22;2.25;;;;;;;;;;5113343;28;20035;-68
2021/09/20 11:24:42;;;;;;;6.20;1.77;;;;;;;;;;5107981;28;20024;-68
2021/09/20 11:27:15;;;;;;;3.05;1.80;;;;;;;;;;5092987;28;20028;-68
2021/09/20 11:29:42;;;;;;;4.73;2.20;;;;;;;;;;5092508;28;20023;-68
2021/09/20 11:32:08;;;;;;;2.85;1.85;;;;;;;;;;5092687;28;20379;-68
2021/09/20 11:34:37;;;;;;;2.40;1.50;;;;;;;;;;5108626;28;20096;-68
2021/09/20 11:37:18;;;;;;;7.38;2.08;;;;;;;;;;5112925;28;20527;-69
2021/09/20 11:39:55;;;;;;;2.83;1.50;;;;;;;;;;5099309;28;20361;-67
2021/09/20 11:42:24;;;;;;;3.50;1.60;;;;;;;;;;5113641;28;20062;-65
2021/09/20 11:44:54;;;;;;;3.40;1.50;;;;;;;;;;5113633;28;20023;-66
2021/09/20 11:47:22;;;;;;;1.42;1.02;;;;;;;;;;5113760;28;20027;-67
2021/09/20 11:49:51;;;;;;;3.60;1.80;;;;;;;;;;5110739;28;20072;-68
2021/09/20 11:52:34;;;;;;;3.45;1.40;;;;;;;;;;5097073;28;20380;-67
2021/09/20 11:55:00;;;;;;;1.90;1.40;;;;;;;;;;5100517;28;20020;-68
2021/09/20 11:57:30;;;;;;;2.00;1.35;;;;;;;;;;5095417;28;20127;-69
2021/09/20 11:59:59;;;;;;;3.13;1.83;;;;;;;;;;5093705;28;20027;-68
2021/09/20 12:02:29;;;;;;;4.75;1.85;;;;;;;;;;5092434;28;20040;-69
2021/09/20 12:04:55;;;;;;;3.47;1.70;;;;;;;;;;5092091;28;20058;-68
2021/09/20 12:07:28;;;;;;;3.30;1.90;;;;;;;;;;5073511;28;20060;-68
2021/09/20 12:09:55;;;;;;;4.93;2.15;;;;;;;;;;5092301;28;20107;-69
2021/09/20 12:12:26;;;;;;;2.85;1.60;;;;;;;;;;5092065;28;20024;-69
2021/09/20 12:15:03;;;;;;;3.20;1.60;;;;;;;;;;5092743;28;20387;-68
2021/09/20 12:17:48;;;;;;;2.65;1.77;;;;;;;;;;5092536;28;20080;-68
2021/09/20 12:20:16;;;;;;;3.33;1.88;;;;;;;;;;5092401;28;20448;-67
2021/09/20 12:22:44;;;;;;;3.00;1.90;;;;;;;;;;5098003;28;20107;-70
2021/09/20 12:25:24;;;;;;;3.35;1.90;;;;;;;;;;5103339;28;20462;-69
2021/09/20 12:27:51;;;;;;;3.30;1.85;;;;;;;;;;5071641;28;20480;-69
2021/09/20 12:30:18;;;;;;;5.07;1.83;;;;;;;;;;5100162;28;20032;-68
2021/09/20 12:32:44;;;;;;;3.30;2.00;;;;;;;;;;5093594;28;20035;-68
2021/09/20 12:35:11;;;;;;;3.95;1.80;;;;;;;;;;5091526;28;20016;-68
2021/09/20 12:37:37;;;;;;;6.28;1.95;;;;;;;;;;5091202;28;20466;-67
2021/09/20 12:40:19;;;;;;;3.20;2.00;;;;;;;;;;5092507;28;20028;-68
2021/09/20 12:43:09;;;;;;;3.90;1.50;;;;;;;;;;5095839;28;20020;-68
2021/09/20 12:45:41;;;;;;;3.75;1.80;;;;;;;;;;5092390;28;20024;-67
2021/09/20 12:48:08;;;;;;;3.00;1.63;;;;;;;;;;5098087;28;20380;-68
2021/09/20 12:50:43;;;;;;;4.07;1.75;;;;;;;;;;5104771;28;20088;-68
2021/09/20 12:53:09;;;;;;;3.95;1.80;;;;;;;;;;5089465;28;20099;-68
2021/09/20 12:55:38;;;;;;;2.85;1.73;;;;;;;;;;5093945;28;20023;-68
2021/09/20 12:58:06;;;;;;;5.40;1.80;;;;;;;;;;5098462;28;20380;-67
2021/09/20 13:00:33;;;;;;;3.33;1.77;;;;;;;;;;5090879;28;20021;-68
2021/09/20 13:03:13;;;;;;;4.15;2.13;;;;;;;;;;5090595;28;20507;-68
2021/09/20 13:05:46;;;;;;;5.03;1.90;;;;;;;;;;5090357;28;20042;-68
2021/09/20 13:08:13;;;;;;;3.97;2.20;;;;;;;;;;5090727;28;20202;-67
2021/09/20 13:10:42;;;;;;;4.93;2.30;;;;;;;;;;5090862;28;20092;-68
2021/09/20 13:13:10;;;;;;;5.07;2.20;;;;;;;;;;5090852;28;20099;-67
2021/09/20 13:15:43;;;;;;;4.45;2.42;;;;;;;;;;5072866;28;20106;-67
2021/09/20 13:18:18;;;;;;;3.42;2.30;;;;;;;;;;5090507;28;20046;-67
2021/09/20 13:20:44;;;;;;;4.47;2.00;;;;;;;;;;5090545;28;20020;-67
2021/09/20 13:23:12;;;;;;;3.10;2.10;;;;;;;;;;5090734;28;20103;-68
2021/09/20 13:25:38;;;;;;;4.85;2.13;;;;;;;;;;5090640;28;20024;-67
2021/09/20 13:28:10;;;;;;;3.55;1.77;;;;;;;;;;5090473;28;20024;-67
2021/09/20 13:30:42;;;;;;;3.83;1.70;;;;;;;;;;5090897;28;20161;-67
2021/09/20 13:33:08;;;;;;;3.75;2.30;;;;;;;;;;5096683;28;20016;-68
2021/09/20 13:35:38;;;;;;;5.03;1.88;;;;;;;;;;5111000;28;20023;-68
2021/09/20 13:38:04;;;;;;;5.07;2.38;;;;;;;;;;5092691;28;20024;-68
2021/09/20 13:40:30;;;;;;;4.10;1.70;;;;;;;;;;5111001;28;20018;-67
2021/09/20 13:42:56;;;;;;;2.72;1.75;;;;;;;;;;5110721;28;20028;-67
2021/09/20 13:45:22;;;;;;;2.75;1.88;;;;;;;;;;5110826;28;20030;-67
2021/09/20 13:47:48;;;;;;;4.70;2.00;;;;;;;;;;5110694;28;20279;-68
2021/09/20 13:50:14;;;;;;;3.47;1.90;;;;;;;;;;5110555;28;20069;-68
2021/09/20 13:52:41;;;;;;;3.22;2.08;;;;;;;;;;5110685;28;20103;-67
2021/09/20 13:55:09;;;;;;;3.05;1.92;;;;;;;;;;5110094;28;20020;-68
2021/09/20 13:57:35;;;;;;;4.07;2.00;;;;;;;;;;5090365;28;20497;-67
2021/09/20 14:00:00;;;;;;;5.28;2.28;;;;;;;;;;5090000;28;20380;-67
2021/09/20 14:02:26;;;;;;;3.38;2.10;;;;;;;;;;5090213;28;20050;-67
2021/09/20 14:04:52;;;;;;;3.10;1.77;;;;;;;;;;5090061;28;20032;-66
2021/09/20 14:07:18;;;;;;;3.03;1.77;;;;;;;;;;5090289;28;20028;-68
2021/09/20 14:09:44;;;;;;;5.05;2.30;;;;;;;;;;5090134;28;20027;-67
2021/09/20 14:12:09;;;;;;;3.42;1.80;;;;;;;;;;5105449;28;20483;-67
2021/09/20 14:14:35;;;;;;;4.88;1.85;;;;;;;;;;5090252;28;20016;-68
2021/09/20 14:17:01;;;;;;;4.40;1.83;;;;;;;;;;5091695;28;20031;-67
2021/09/20 14:19:27;;;;;;;3.78;1.80;;;;;;;;;;5094049;28;20499;-67
2021/09/20 14:21:52;;;;;;;4.15;1.90;;;;;;;;;;5094013;28;20016;-68
2021/09/20 14:24:18;;;;;;;3.10;1.52;;;;;;;;;;5093678;28;20107;-67
2021/09/20 14:26:43;;;;;;;2.50;1.30;;;;;;;;;;5093893;28;20070;-68
2021/09/20 14:29:09;;;;;;;4.50;1.77;;;;;;;;;;5093941;28;20031;-67
2021/09/20 14:31:36;;;;;;;4.30;1.60;;;;;;;;;;5093675;28;20110;-67
2021/09/20 14:34:02;;;;;;;2.03;1.40;;;;;;;;;;5107067;28;20335;-67
2021/09/20 14:36:27;;;;;;;2.70;1.50;;;;;;;;;;5114136;28;20411;-68
2021/09/20 14:38:53;;;;;;;2.72;1.58;;;;;;;;;;5113707;28;20028;-68
2021/09/20 14:41:18;;;;;;;3.65;1.63;;;;;;;;;;5113990;28;20076;-68
2021/09/20 14:43:43;;;;;;;2.40;1.48;;;;;;;;;;5114111;28;20128;-69
2021/09/20 14:46:09;;;;;;;3.00;1.30;;;;;;;;;;5113638;28;20301;-68
2021/09/20 14:48:36;;;;;;;6.63;1.50;;;;;;;;;;5113825;28;20020;-68
2021/09/20 14:51:06;;;;;;;3.33;1.60;;;;;;;;;;5113531;28;20077;-67